Time;durP1;ratioP1;P1;durP2;ratioP2;P2;SDS_P1;SDS_P2;PMS_P1;PMS_P2;Temp;Humidity;BMP_temperature;BMP_pressure;BME280_temperature;BME280_humidity;BME280_pressure;Samples;Min_cycle;Max_cycle;Signal;HPM_P1;HPM_P2
2023/03/11 00:02:46;;;;;;;0.60;0.60;;;;;;;-0.96;99.19;99975.53;10563598;28;20051;-84
2023/03/11 00:07:47;;;;;;;0.20;0.20;;;;;;;-1.06;99.27;99994.75;10568922;27;20404;-84
2023/03/11 00:12:49;;;;;;;0.20;0.20;;;;;;;-1.10;99.15;100003.09;10560616;28;20035;-84
2023/03/11 00:17:50;;;;;;;1.08;0.57;;;;;;;-1.11;98.98;100025.34;10562509;28;20052;-84
2023/03/11 00:22:53;;;;;;;0.65;0.47;;;;;;;-1.08;99.07;100055.47;10571751;28;20131;-84
2023/03/11 00:27:55;;;;;;;1.17;1.05;;;;;;;-1.04;99.26;100065.09;10579871;27;20411;-85
2023/03/11 00:32:57;;;;;;;0.52;0.20;;;;;;;-0.98;98.90;100067.97;10527949;27;20039;-84
2023/03/11 00:38:01;;;;;;;0.20;0.20;;;;;;;-0.99;98.87;100071.38;10539896;28;20036;-84
2023/03/11 00:43:03;;;;;;;0.30;0.30;;;;;;;-0.98;98.88;100074.81;10544932;28;20044;-84
2023/03/11 00:48:05;;;;;;;0.20;0.20;;;;;;;-0.98;98.95;100073.09;10547469;28;20121;-84
2023/03/11 00:53:07;;;;;;;0.40;0.40;;;;;;;-0.97;99.12;100074.00;10550733;27;20545;-84
2023/03/11 00:58:09;;;;;;;0.20;0.20;;;;;;;-1.04;98.88;100075.34;10559484;27;20522;-84
2023/03/11 01:03:18;;;;;;;0.10;0.10;;;;;;;-1.10;98.89;100080.19;10568307;27;20032;-83
2023/03/11 01:08:20;;;;;;;0.10;0.10;;;;;;;-1.14;98.56;100098.81;10561403;27;20044;-84
2023/03/11 01:13:21;;;;;;;0.10;0.10;;;;;;;-1.19;99.10;100111.41;10592341;27;20054;-84
2023/03/11 01:18:23;;;;;;;0.13;0.13;;;;;;;-1.21;98.78;100119.88;10549162;27;20039;-84
2023/03/11 01:23:24;;;;;;;0.15;0.15;;;;;;;-1.28;98.91;100132.34;10562831;27;20108;-85
2023/03/11 01:28:27;;;;;;;0.10;0.10;;;;;;;-1.30;98.86;100139.09;10566038;27;20126;-84
2023/03/11 01:33:29;;;;;;;0.20;0.20;;;;;;;-1.33;98.56;100149.22;10577710;27;20491;-84
2023/03/11 01:38:30;;;;;;;0.10;0.10;;;;;;;-1.37;98.73;100149.84;10566265;27;20048;-85
2023/03/11 01:43:44;;;;;;;0.10;0.10;;;;;;;-1.40;98.75;100152.22;10598522;27;20039;-85
2023/03/11 01:48:57;;;;;;;0.10;0.10;;;;;;;-1.44;98.52;100160.59;10533654;28;20460;-85
2023/03/11 01:54:06;;;;;;;0.52;0.43;;;;;;;-1.42;98.50;100170.13;10523821;28;20074;-85
2023/03/11 01:59:11;;;;;;;0.10;0.10;;;;;;;-1.44;98.93;100181.13;10530062;28;20043;-85
2023/03/11 02:04:14;;;;;;;0.10;0.10;;;;;;;-1.49;98.68;100187.69;10519514;28;20127;-85
2023/03/11 02:09:16;;;;;;;0.47;0.47;;;;;;;-1.50;98.54;100194.53;10500284;28;20048;-86
2023/03/11 02:14:18;;;;;;;0.17;0.17;;;;;;;-1.50;98.68;100199.66;10548790;28;20134;-85
2023/03/11 02:19:41;;;;;;;1.17;1.10;;;;;;;-1.40;98.28;100202.72;10545082;28;20303;-85
2023/03/11 02:24:58;;;;;;;3.92;2.00;;;;;;;-1.33;98.30;100205.72;10513115;28;20044;-84
2023/03/11 02:30:01;;;;;;;0.10;0.10;;;;;;;-1.29;98.09;100209.31;10540395;28;20071;-87
2023/03/11 02:35:05;;;;;;;0.20;0.20;;;;;;;-1.27;98.19;100208.63;10513042;28;20036;-86
2023/03/11 02:40:22;;;;;;;0.20;0.20;;;;;;;-1.25;97.98;100216.41;10547426;28;20400;-86
2023/03/11 02:45:29;;;;;;;0.17;0.17;;;;;;;-1.27;97.98;100221.47;10543796;28;20112;-86
2023/03/11 02:50:33;;;;;;;0.10;0.10;;;;;;;-1.30;98.03;100223.88;10530466;28;20074;-86
2023/03/11 02:55:35;;;;;;;0.10;0.10;;;;;;;-1.32;97.88;100222.91;10546830;28;20093;-87
2023/03/11 03:00:37;;;;;;;0.10;0.10;;;;;;;-1.38;97.59;100230.28;10540530;28;20513;-85
2023/03/11 03:05:41;;;;;;;0.10;0.10;;;;;;;-1.43;97.32;100242.88;10520674;28;20036;-86
2023/03/11 03:10:43;;;;;;;0.10;0.10;;;;;;;-1.53;97.21;100249.94;10520663;28;20043;-86
2023/03/11 03:15:45;;;;;;;0.10;0.10;;;;;;;-1.60;97.36;100257.28;10537537;28;20032;-86
2023/03/11 03:20:46;;;;;;;0.15;0.15;;;;;;;-1.63;96.64;100264.81;10532568;28;20047;-86
2023/03/11 03:25:50;;;;;;;0.35;0.35;;;;;;;-1.68;96.17;100279.09;10503733;28;20036;-86
2023/03/11 03:30:53;;;;;;;0.10;0.10;;;;;;;-1.72;96.39;100282.25;10560883;28;20050;-84
2023/03/11 03:35:54;;;;;;;0.22;0.22;;;;;;;-1.69;96.22;100281.56;10519334;28;20032;-86
2023/03/11 03:41:00;;;;;;;0.10;0.10;;;;;;;-1.66;95.84;100286.88;10538165;28;20036;-86
2023/03/11 03:46:04;;;;;;;0.10;0.10;;;;;;;-1.59;95.69;100278.75;10511957;28;20313;-86
2023/03/11 03:51:13;;;;;;;0.10;0.10;;;;;;;-1.58;95.44;100293.31;10520140;28;20458;-86
2023/03/11 03:56:20;;;;;;;0.75;0.75;;;;;;;-1.58;95.47;100275.34;10520725;28;20032;-86
2023/03/11 04:01:22;;;;;;;0.13;0.13;;;;;;;-1.60;95.89;100295.81;10536385;28;20050;-86
2023/03/11 04:06:26;;;;;;;0.10;0.10;;;;;;;-1.64;95.03;100311.81;10548476;28;20410;-86
2023/03/11 04:11:39;;;;;;;0.10;0.10;;;;;;;-1.66;95.06;100310.84;10531723;28;20500;-86
2023/03/11 04:16:41;;;;;;;0.10;0.10;;;;;;;-1.64;94.97;100316.09;10544863;28;20583;-86
2023/03/11 04:21:45;;;;;;;0.57;0.55;;;;;;;-1.61;94.75;100331.66;10547980;28;20036;-86
2023/03/11 04:26:47;;;;;;;0.10;0.10;;;;;;;-1.63;94.93;100329.00;10557576;28;20565;-86
2023/03/11 04:31:51;;;;;;;0.10;0.10;;;;;;;-1.70;94.64;100337.13;10550198;28;20051;-85
2023/03/11 04:36:53;;;;;;;0.10;0.10;;;;;;;-1.72;94.21;100348.13;10543796;28;20205;-86
2023/03/11 04:42:00;;;;;;;0.10;0.10;;;;;;;-1.81;94.51;100353.59;10543408;28;20091;-86
2023/03/11 04:47:05;;;;;;;0.15;0.15;;;;;;;-1.84;94.34;100353.41;10526340;28;20040;-86
2023/03/11 04:52:08;;;;;;;0.20;0.20;;;;;;;-1.90;93.92;100360.75;10518967;28;20055;-87
2023/03/11 04:57:09;;;;;;;0.10;0.10;;;;;;;-1.92;93.99;100376.06;10535960;28;20032;-86
2023/03/11 05:02:15;;;;;;;0.00;0.00;;;;;;;-1.97;94.00;100393.75;10544395;28;20524;-85
2023/03/11 05:07:25;;;;;;;0.60;0.50;;;;;;;-2.03;93.64;100393.34;10543190;27;20040;-86
2023/03/11 05:12:27;;;;;;;0.20;0.20;;;;;;;-2.16;93.69;100412.25;10569542;28;20044;-86
2023/03/11 05:17:29;;;;;;;0.10;0.10;;;;;;;-2.25;93.55;100413.34;10533534;28;20067;-86
2023/03/11 05:22:31;;;;;;;0.22;0.22;;;;;;;-2.29;93.14;100414.84;10542754;28;20043;-86
2023/03/11 05:27:33;;;;;;;0.30;0.30;;;;;;;-2.42;93.35;100417.44;10533649;28;20380;-86
2023/03/11 05:32:34;;;;;;;0.10;0.10;;;;;;;-2.45;93.08;100419.78;10528945;28;20549;-86
2023/03/11 05:37:38;;;;;;;1.70;1.58;;;;;;;-2.50;93.18;100433.22;10528820;28;20035;-86
2023/03/11 05:42:40;;;;;;;0.20;0.20;;;;;;;-2.56;93.21;100437.06;10540603;28;20039;-86
2023/03/11 05:47:45;;;;;;;0.20;0.20;;;;;;;-2.61;92.99;100456.38;10532492;28;20311;-85
2023/03/11 05:52:50;;;;;;;0.17;0.17;;;;;;;-2.68;92.86;100453.41;10527573;28;20632;-86
2023/03/11 05:57:54;;;;;;;0.10;0.10;;;;;;;-2.65;93.18;100455.31;10523222;28;20055;-85
2023/03/11 06:02:56;;;;;;;0.50;0.50;;;;;;;-2.68;92.75;100460.22;10532165;27;20040;-86
2023/03/11 06:07:58;;;;;;;0.45;0.45;;;;;;;-2.69;92.88;100478.97;10541702;28;20121;-88
2023/03/11 06:13:00;;;;;;;0.30;0.30;;;;;;;-2.70;92.84;100493.47;10547805;28;20036;-85
2023/03/11 06:18:06;;;;;;;0.40;0.40;;;;;;;-2.69;92.67;100496.91;10540800;28;20074;-86
2023/03/11 06:23:09;;;;;;;0.20;0.20;;;;;;;-2.65;92.68;100505.69;10522117;28;20216;-88
2023/03/11 06:28:12;;;;;;;0.30;0.30;;;;;;;-2.63;92.65;100516.94;10547277;28;20044;-86
2023/03/11 06:33:35;;;;;;;0.20;0.20;;;;;;;-2.62;92.52;100516.16;10547948;28;20457;-86
2023/03/11 06:38:40;;;;;;;0.20;0.20;;;;;;;-2.58;92.81;100524.13;10543104;27;20040;-87
2023/03/11 06:43:45;;;;;;;0.10;0.10;;;;;;;-2.53;92.68;100527.00;10536385;28;20043;-86
2023/03/11 06:48:50;;;;;;;0.30;0.30;;;;;;;-2.53;92.53;100527.88;10539736;28;20096;-86
2023/03/11 06:53:54;;;;;;;0.10;0.10;;;;;;;-2.49;92.32;100541.81;10539609;28;20039;-85
2023/03/11 06:58:57;;;;;;;0.35;0.35;;;;;;;-2.44;92.20;100555.78;10542817;28;20524;-86
2023/03/11 07:04:04;;;;;;;0.30;0.30;;;;;;;-2.32;92.08;100563.41;10544105;28;20523;-86
2023/03/11 07:09:07;;;;;;;0.20;0.20;;;;;;;-2.27;92.05;100568.84;10536025;28;20036;-88
2023/03/11 07:14:14;;;;;;;0.47;0.47;;;;;;;-2.19;92.13;100586.50;10542178;28;20036;-87
2023/03/11 07:19:22;;;;;;;0.17;0.17;;;;;;;-2.11;91.96;100594.69;10556633;28;20134;-86
2023/03/11 07:24:24;;;;;;;0.25;0.25;;;;;;;-2.05;91.97;100600.22;10524253;28;20144;-86
2023/03/11 07:29:25;;;;;;;0.10;0.10;;;;;;;-1.92;92.04;100606.13;10545222;28;20048;-85
2023/03/11 07:34:27;;;;;;;0.10;0.10;;;;;;;-1.78;91.55;100625.88;10552418;28;20101;-84
2023/03/11 07:39:31;;;;;;;1.55;0.75;;;;;;;-1.57;91.70;100625.47;10532168;28;20096;-82
2023/03/11 07:44:33;;;;;;;0.35;0.35;;;;;;;-0.26;91.38;100636.81;10552629;28;20127;-83
2023/03/11 07:49:35;;;;;;;0.20;0.20;;;;;;;1.78;90.91;100640.03;10545947;28;20538;-85
2023/03/11 07:54:37;;;;;;;0.15;0.15;;;;;;;3.70;89.09;100647.16;10536618;28;20478;-84
2023/03/11 07:59:39;;;;;;;0.20;0.20;;;;;;;4.70;85.65;100648.63;10543584;28;20051;-84
2023/03/11 08:04:41;;;;;;;0.50;0.47;;;;;;;5.20;81.96;100655.66;10543254;28;20040;-85
2023/03/11 08:09:43;;;;;;;0.77;0.30;;;;;;;5.55;79.01;100672.50;10547808;28;20133;-85
2023/03/11 08:14:45;;;;;;;6.30;1.30;;;;;;;6.06;76.88;100681.19;10536533;28;20036;-85
2023/03/11 08:19:48;;;;;;;0.20;0.20;;;;;;;5.84;74.68;100694.31;10537994;28;20036;-85
2023/03/11 08:24:51;;;;;;;0.40;0.40;;;;;;;6.39;72.93;100703.97;10577398;27;20292;-86
2023/03/11 08:29:53;;;;;;;1.05;0.50;;;;;;;5.74;71.35;100702.63;10567210;27;20404;-85
2023/03/11 08:34:55;;;;;;;0.57;0.43;;;;;;;5.33;70.73;100709.81;10585245;27;20039;-85
2023/03/11 08:39:56;;;;;;;5.15;1.25;;;;;;;5.69;71.19;100711.97;10582462;27;20035;-85
2023/03/11 08:44:58;;;;;;;1.92;0.77;;;;;;;5.40;69.87;100711.78;10591095;27;20401;-85
2023/03/11 08:50:00;;;;;;;0.35;0.20;;;;;;;5.06;69.67;100726.09;10580697;27;20126;-84
2023/03/11 08:55:03;;;;;;;0.20;0.15;;;;;;;4.93;69.56;100729.03;10552933;28;20040;-83
2023/03/11 09:00:07;;;;;;;0.20;0.20;;;;;;;5.22;69.68;100729.28;10581739;27;20044;-83
2023/03/11 09:05:09;;;;;;;0.32;0.32;;;;;;;5.10;69.51;100738.38;10574901;28;20078;-82
2023/03/11 09:10:14;;;;;;;0.43;0.30;;;;;;;4.93;69.53;100734.22;10576800;28;20050;-82
2023/03/11 09:15:16;;;;;;;0.30;0.20;;;;;;;5.52;69.84;100741.63;10581693;27;20047;-82
2023/03/11 09:20:17;;;;;;;0.32;0.32;;;;;;;5.79;69.33;100737.44;10592280;27;20027;-82
2023/03/11 09:25:19;;;;;;;0.65;0.43;;;;;;;5.31;68.57;100737.41;10594540;27;20058;-82
2023/03/11 09:30:20;;;;;;;0.80;0.57;;;;;;;5.60;68.82;100735.91;10586746;27;20520;-81
2023/03/11 09:35:22;;;;;;;2.05;0.40;;;;;;;5.88;68.65;100741.19;10593005;27;20049;-81
2023/03/11 09:40:31;;;;;;;1.55;0.50;;;;;;;5.75;68.34;100742.47;10589681;27;20035;-82
2023/03/11 09:45:39;;;;;;;0.32;0.32;;;;;;;6.30;68.17;100752.22;10579108;28;20050;-81
2023/03/11 09:51:01;;;;;;;0.40;0.40;;;;;;;5.76;67.94;100768.50;10596513;27;20390;-81
2023/03/11 09:56:10;;;;;;;0.75;0.20;;;;;;;5.40;68.11;100763.72;10595328;27;20404;-81
2023/03/11 10:01:20;;;;;;;0.63;0.38;;;;;;;5.48;68.43;100772.69;10589658;27;20047;-80
2023/03/11 10:06:24;;;;;;;4.18;0.50;;;;;;;5.27;68.90;100769.28;10576529;27;20054;-81
2023/03/11 10:11:48;;;;;;;0.32;0.32;;;;;;;5.57;69.10;100776.44;10567723;27;20042;-82
2023/03/11 10:17:13;;;;;;;0.80;0.45;;;;;;;5.19;69.29;100781.06;10583323;27;20050;-80
2023/03/11 10:22:21;;;;;;;0.52;0.40;;;;;;;5.53;69.13;100777.19;10592810;27;20051;-80
2023/03/11 10:27:41;;;;;;;0.20;0.20;;;;;;;5.43;69.10;100773.34;10601142;27;20032;-81
2023/03/11 10:32:52;;;;;;;0.53;0.40;;;;;;;5.26;69.70;100781.38;10594249;27;20058;-80
2023/03/11 10:38:01;;;;;;;0.38;0.30;;;;;;;5.27;69.66;100782.28;10597634;27;20046;-81
2023/03/11 10:43:10;;;;;;;0.35;0.35;;;;;;;5.09;70.14;100770.34;10571508;27;20039;-81
2023/03/11 10:48:14;;;;;;;1.00;0.52;;;;;;;5.37;70.15;100776.59;10593337;27;20043;-80
2023/03/11 10:53:18;;;;;;;0.40;0.25;;;;;;;5.22;69.81;100776.00;10560036;27;20555;-80
2023/03/11 10:58:26;;;;;;;0.65;0.63;;;;;;;5.08;69.96;100778.94;10593838;27;20115;-80
2023/03/11 11:03:28;;;;;;;1.55;1.05;;;;;;;5.22;69.71;100786.38;10588715;27;20085;-81
2023/03/11 11:08:31;;;;;;;3.42;1.30;;;;;;;5.04;70.15;100786.56;10559309;27;20047;-81
2023/03/11 11:13:34;;;;;;;0.30;0.30;;;;;;;5.02;70.38;100780.44;10581328;27;20484;-80
2023/03/11 11:18:40;;;;;;;1.42;0.70;;;;;;;4.67;70.48;100785.97;10582610;27;20046;-80
2023/03/11 11:23:47;;;;;;;0.40;0.40;;;;;;;4.81;71.02;100785.66;10591231;27;20685;-80
2023/03/11 11:29:11;;;;;;;4.65;1.00;;;;;;;4.36;70.38;100779.50;10582904;27;20139;-80
2023/03/11 11:34:31;;;;;;;0.45;0.20;;;;;;;4.69;70.71;100776.53;10586318;27;20777;-80
2023/03/11 11:39:50;;;;;;;1.50;0.20;;;;;;;4.74;70.41;100764.66;10585742;27;20052;-80
2023/03/11 11:45:36;;;;;;;0.25;0.25;;;;;;;4.49;70.28;100767.03;10567434;28;20463;-80
2023/03/11 11:50:47;;;;;;;0.15;0.15;;;;;;;5.01;70.92;100774.34;10590718;27;20418;-81
2023/03/11 11:55:54;;;;;;;1.23;0.77;;;;;;;4.78;70.71;100776.91;10572325;28;20031;-81
2023/03/11 12:01:22;;;;;;;0.30;0.30;;;;;;;4.93;70.73;100775.75;10545436;28;20039;-82
2023/03/11 12:06:23;;;;;;;0.90;0.65;;;;;;;4.92;70.52;100780.06;10557999;28;20048;-82
2023/03/11 12:11:33;;;;;;;0.90;0.43;;;;;;;4.78;70.41;100789.88;10573424;28;20051;-82
2023/03/11 12:17:04;;;;;;;2.42;0.55;;;;;;;4.75;70.16;100788.88;10564360;28;20039;-82
2023/03/11 12:22:11;;;;;;;1.67;0.75;;;;;;;4.51;69.91;100793.94;10578440;28;20040;-82
2023/03/11 12:27:26;;;;;;;0.40;0.30;;;;;;;4.33;69.75;100786.28;10555892;28;20043;-80
2023/03/11 12:32:48;;;;;;;0.10;0.10;;;;;;;4.63;70.20;100783.19;10581275;28;20050;-81
2023/03/11 12:38:03;;;;;;;0.43;0.20;;;;;;;4.81;70.51;100780.47;10575668;28;20035;-83
2023/03/11 12:43:41;;;;;;;1.25;0.52;;;;;;;4.86;70.09;100790.16;10588673;27;20054;-81
2023/03/11 12:48:43;;;;;;;0.40;0.40;;;;;;;4.37;69.54;100786.47;10520133;27;20062;-80
2023/03/11 12:53:47;;;;;;;0.43;0.22;;;;;;;4.39;69.98;100790.00;10579877;27;20039;-81
2023/03/11 12:59:08;;;;;;;0.32;0.30;;;;;;;4.39;70.12;100795.19;10605577;27;20057;-82
2023/03/11 13:04:31;;;;;;;0.20;0.20;;;;;;;4.25;70.10;100797.19;10551835;27;20040;-80
2023/03/11 13:09:33;;;;;;;0.90;0.57;;;;;;;4.39;70.06;100791.72;10581388;27;20062;-81
2023/03/11 13:14:35;;;;;;;1.08;0.45;;;;;;;4.72;70.00;100794.81;10574694;27;20282;-82
2023/03/11 13:19:47;;;;;;;0.13;0.13;;;;;;;4.56;70.05;100803.69;10600597;27;20051;-83
2023/03/11 13:24:51;;;;;;;0.35;0.35;;;;;;;4.60;69.82;100802.09;10584666;27;20469;-89
2023/03/11 13:30:52;;;;;;;;;;;;;;;;;;;;;
2023/03/11 13:36:45;;;;;;;0.43;0.32;;;;;;;4.28;69.98;100806.81;10562255;27;20575;-89
2023/03/11 13:41:54;;;;;;;1.35;0.60;;;;;;;4.39;70.16;100802.97;10568686;27;20568;-89
2023/03/11 13:47:16;;;;;;;0.45;0.40;;;;;;;4.22;69.89;100812.63;10577203;27;20034;-84
2023/03/11 13:52:54;;;;;;;0.10;0.10;;;;;;;4.12;69.99;100812.16;10564386;27;20100;-84
2023/03/11 13:57:57;;;;;;;1.02;0.60;;;;;;;3.94;70.36;100818.28;10559556;27;20065;-85
2023/03/11 14:03:02;;;;;;;0.35;0.20;;;;;;;3.81;70.77;100815.97;10601387;27;20692;-82
2023/03/11 14:08:27;;;;;;;0.30;0.30;;;;;;;3.69;71.04;100824.06;10578450;27;20043;-85
2023/03/11 14:13:37;;;;;;;0.13;0.13;;;;;;;3.64;71.11;100828.16;10584931;27;20051;-82
2023/03/11 14:18:47;;;;;;;0.10;0.10;;;;;;;3.62;70.85;100824.59;10569481;27;20537;-83
2023/03/11 14:23:51;;;;;;;0.50;0.43;;;;;;;3.43;71.23;100838.41;10563676;27;20059;-84
2023/03/11 14:28:56;;;;;;;0.13;0.13;;;;;;;3.44;71.45;100840.16;10559232;28;20067;-84
2023/03/11 14:34:13;;;;;;;0.22;0.22;;;;;;;3.42;71.25;100839.22;10578058;27;20043;-83
2023/03/11 14:39:36;;;;;;;0.28;0.28;;;;;;;3.20;71.60;100840.81;10529924;28;20051;-86
2023/03/11 14:44:46;;;;;;;0.70;0.57;;;;;;;3.24;71.71;100837.53;10567515;27;20325;-89
2023/03/11 14:49:49;;;;;;;0.17;0.17;;;;;;;3.33;71.86;100831.91;10534051;28;20411;-86
2023/03/11 14:54:56;;;;;;;1.83;1.08;;;;;;;3.34;71.69;100837.16;10521403;28;20115;-85
2023/03/11 14:59:58;;;;;;;0.20;0.20;;;;;;;3.31;72.00;100847.38;10548225;28;20403;-87
2023/03/11 15:05:08;;;;;;;0.55;0.32;;;;;;;3.32;71.79;100836.22;10578717;27;20070;-89
2023/03/11 15:10:18;;;;;;;0.20;0.20;;;;;;;3.39;72.22;100833.91;10560450;27;20063;-87
2023/03/11 15:15:30;;;;;;;0.22;0.22;;;;;;;3.34;71.78;100828.50;10560259;27;20503;-87
2023/03/11 15:20:38;;;;;;;0.45;0.20;;;;;;;3.36;72.10;100820.00;10545210;28;20649;-85
2023/03/11 15:25:56;;;;;;;0.45;0.45;;;;;;;3.31;72.30;100830.97;10518367;28;20355;-86
2023/03/11 15:31:35;;;;;;;7.38;0.68;;;;;;;3.41;72.27;100834.84;10549631;28;20396;-87
2023/03/11 15:36:54;;;;;;;0.40;0.20;;;;;;;3.39;72.07;100832.19;10512904;28;20080;-87
2023/03/11 15:54:25;;;;;;;0.20;0.20;;;;;;;3.54;71.57;100834.59;10479649;28;20074;-86
2023/03/11 15:59:49;;;;;;;0.75;0.70;;;;;;;3.62;71.73;100845.31;10511457;28;20462;-88
2023/03/11 16:04:55;;;;;;;0.28;0.28;;;;;;;3.71;71.74;100833.69;10538387;28;20421;-89
2023/03/11 16:10:02;;;;;;;0.20;0.20;;;;;;;3.61;71.45;100849.63;10506995;28;20051;-89
2023/03/11 16:15:34;;;;;;;0.75;0.47;;;;;;;3.74;71.71;100845.00;10524874;28;20070;-89
2023/03/11 16:21:01;;;;;;;0.47;0.20;;;;;;;3.57;71.66;100842.50;10539897;27;20051;-89
2023/03/11 16:26:44;;;;;;;1.63;0.43;;;;;;;3.31;71.39;100841.31;10531360;27;20145;-91
2023/03/11 16:32:37;;;;;;;0.20;0.20;;;;;;;3.07;72.12;100841.03;10515393;27;20365;-92
2023/03/11 16:57:04;;;;;;;;;;;;;;;;;;;;;
2023/03/11 17:02:33;;;;;;;1.20;0.82;;;;;;;2.32;72.85;100861.44;10548169;28;20048;-90
2023/03/11 17:08:16;;;;;;;0.20;0.20;;;;;;;2.23;72.79;100859.25;10494195;28;20044;-91
2023/03/11 17:14:12;;;;;;;0.10;0.10;;;;;;;2.12;73.08;100871.63;10492485;27;20055;-89
2023/03/11 17:19:23;;;;;;;0.10;0.10;;;;;;;2.11;73.56;100900.84;10577104;27;20045;-90
2023/03/11 17:24:47;;;;;;;0.30;0.30;;;;;;;1.93;75.16;100914.53;10566377;27;20425;-90
2023/03/11 17:30:07;;;;;;;0.55;0.40;;;;;;;1.75;77.08;100917.00;10537023;27;20125;-90
2023/03/11 17:36:08;;;;;;;;;;;;;;;;;;;;;
2023/03/11 17:41:51;;;;;;;0.30;0.30;;;;;;;1.16;80.47;100912.00;10550100;27;20453;-90
2023/03/11 17:47:38;;;;;;;0.30;0.30;;;;;;;1.10;81.96;100916.81;10574035;27;20070;-90
2023/03/11 17:53:15;;;;;;;0.15;0.13;;;;;;;0.99;82.77;100914.50;10547474;27;20121;-91
2023/03/11 17:58:26;;;;;;;1.90;0.52;;;;;;;0.94;83.87;100922.78;10571429;27;20039;-92
2023/03/11 18:04:28;;;;;;;0.30;0.30;;;;;;;0.87;84.24;100917.25;10544417;27;20152;-92
2023/03/11 18:09:56;;;;;;;0.25;0.25;;;;;;;0.84;84.69;100922.25;10571533;27;20027;-92
2023/03/11 18:15:23;;;;;;;0.10;0.10;;;;;;;0.83;85.09;100927.31;10566707;27;20129;-86
2023/03/11 18:20:24;;;;;;;0.52;0.50;;;;;;;0.76;85.72;100931.19;10561145;27;20042;-87
2023/03/11 18:25:48;;;;;;;0.63;0.30;;;;;;;0.68;85.95;100922.13;10569811;27;20047;-93
2023/03/11 18:31:25;;;;;;;0.20;0.20;;;;;;;0.67;86.32;100923.81;10543196;27;20514;-92
2023/03/11 18:37:06;;;;;;;;;;;;;;;;;;;;;
2023/03/11 18:42:47;;;;;;;0.10;0.10;;;;;;;0.60;86.59;100939.72;10542395;27;20050;-92
2023/03/11 18:48:12;;;;;;;0.13;0.13;;;;;;;0.64;86.42;100938.22;10507505;28;20491;-92
2023/03/11 18:53:33;;;;;;;0.32;0.30;;;;;;;0.67;86.60;100931.53;10555502;27;20035;-92
2023/03/11 18:58:59;;;;;;;2.53;0.40;;;;;;;0.66;86.59;100944.34;10559811;27;20036;-91
2023/03/11 19:04:02;;;;;;;0.32;0.32;;;;;;;0.62;86.69;100951.00;10552790;27;20043;-92
2023/03/11 19:09:09;;;;;;;0.10;0.10;;;;;;;0.57;86.66;100943.78;10531194;27;20039;-91
2023/03/11 19:14:15;;;;;;;0.30;0.30;;;;;;;0.57;86.31;100943.78;10569371;27;20526;-92
2023/03/11 19:19:47;;;;;;;0.43;0.43;;;;;;;0.55;86.36;100937.66;10566974;27;20043;-91
2023/03/11 19:24:56;;;;;;;0.85;0.25;;;;;;;0.49;86.49;100941.63;10546560;27;20098;-91
2023/03/11 19:30:22;;;;;;;0.20;0.20;;;;;;;0.45;86.45;100944.84;10546077;28;20155;-90
2023/03/11 19:41:29;;;;;;;0.47;0.13;;;;;;;0.37;86.47;100945.19;10538018;27;20084;-91
2023/03/11 19:46:54;;;;;;;0.20;0.20;;;;;;;0.38;86.28;100958.16;10537636;28;20043;-91
2023/03/11 19:52:11;;;;;;;1.02;0.52;;;;;;;0.30;86.21;100954.19;10538658;28;20139;-91
2023/03/11 19:57:22;;;;;;;1.00;0.50;;;;;;;0.24;86.62;100956.41;10549922;28;20422;-91
2023/03/11 20:02:26;;;;;;;0.28;0.28;;;;;;;0.15;86.55;100957.63;10536741;28;20086;-92
2023/03/11 20:08:45;;;;;;;;;;;;;;;;;;;;;
2023/03/11 20:20:36;;;;;;;1.50;1.07;;;;;;;0.04;87.01;100961.22;10522858;22;20581;-88
2023/03/11 20:26:07;;;;;;;0.10;0.10;;;;;;;0.02;87.10;100967.09;10486440;28;20490;-87
2023/03/11 20:31:15;;;;;;;0.35;0.35;;;;;;;-0.04;87.11;100970.16;10501643;28;20475;-87
2023/03/11 20:36:23;;;;;;;0.22;0.22;;;;;;;-0.06;87.32;100970.06;10484425;28;20044;-87
2023/03/11 20:41:32;;;;;;;0.63;0.55;;;;;;;-0.10;87.13;100978.38;10508330;28;20044;-88
2023/03/11 20:46:40;;;;;;;0.73;0.38;;;;;;;-0.15;86.92;100981.44;10475391;28;20039;-89
2023/03/11 20:51:42;;;;;;;0.20;0.20;;;;;;;-0.19;87.23;100978.69;10501799;28;20044;-90
2023/03/11 20:57:00;;;;;;;0.47;0.30;;;;;;;-0.25;86.79;100980.88;10483599;28;20099;-90
2023/03/11 21:02:15;;;;;;;0.20;0.20;;;;;;;-0.30;87.06;100984.84;10481373;28;20032;-90
2023/03/11 21:07:24;;;;;;;0.28;0.20;;;;;;;-0.35;87.35;100986.22;10468857;28;20090;-89
2023/03/11 21:12:31;;;;;;;0.43;0.43;;;;;;;-0.38;86.96;100980.88;10499404;28;20044;-89
2023/03/11 21:17:34;;;;;;;0.30;0.30;;;;;;;-0.44;86.88;100995.94;10489350;28;20350;-89
2023/03/11 21:22:48;;;;;;;0.10;0.10;;;;;;;-0.47;87.09;100990.59;10503912;28;20055;-90
2023/03/11 21:27:53;;;;;;;0.70;0.57;;;;;;;-0.54;87.09;100979.91;10492430;28;20040;-90
2023/03/11 21:33:12;;;;;;;0.45;0.45;;;;;;;-0.60;87.11;100994.94;10511317;28;20063;-90
2023/03/11 21:38:16;;;;;;;0.40;0.40;;;;;;;-0.62;87.18;100986.22;10490887;28;20071;-89
2023/03/11 21:43:21;;;;;;;0.65;0.52;;;;;;;-0.70;87.20;100987.41;10516625;28;20540;-90
2023/03/11 21:48:32;;;;;;;0.40;0.40;;;;;;;-0.80;86.88;100987.59;10490287;28;20523;-89
2023/03/11 21:53:40;;;;;;;2.22;1.08;;;;;;;-0.81;87.13;100980.66;10514950;28;20563;-90
2023/03/11 21:58:43;;;;;;;0.20;0.20;;;;;;;-0.88;87.30;100988.78;10523086;28;20531;-90
2023/03/11 22:03:48;;;;;;;0.73;0.65;;;;;;;-0.96;87.48;100989.16;10482311;28;20444;-90
2023/03/11 22:08:50;;;;;;;4.60;0.55;;;;;;;-0.95;87.39;100983.19;10506979;28;20043;-91
2023/03/11 22:14:02;;;;;;;0.70;0.60;;;;;;;-1.01;87.33;100985.38;10483335;28;20052;-90
2023/03/11 22:19:14;;;;;;;0.22;0.22;;;;;;;-1.10;87.21;100985.63;10463926;28;20411;-90
2023/03/11 22:24:41;;;;;;;0.50;0.50;;;;;;;-1.14;87.61;100981.09;10480588;28;20127;-90
2023/03/11 22:29:43;;;;;;;0.20;0.20;;;;;;;-1.19;87.56;100979.88;10482370;28;20044;-89
2023/03/11 22:34:44;;;;;;;0.28;0.28;;;;;;;-1.28;87.73;100984.41;10482799;28;20481;-89
2023/03/11 22:39:47;;;;;;;0.57;0.25;;;;;;;-1.39;87.70;101001.66;10483046;28;20043;-90
2023/03/11 22:44:48;;;;;;;0.20;0.20;;;;;;;-1.41;87.90;101018.66;10483847;28;20076;-89
2023/03/11 22:49:50;;;;;;;0.22;0.22;;;;;;;-1.46;87.74;101014.88;10515620;28;20042;-90
2023/03/11 22:54:55;;;;;;;0.20;0.20;;;;;;;-1.50;87.99;101011.22;10458384;28;20331;-90
2023/03/11 22:59:57;;;;;;;0.30;0.30;;;;;;;-1.53;88.54;101017.78;10489352;28;20032;-90
2023/03/11 23:05:20;;;;;;;0.88;0.68;;;;;;;-1.50;88.48;101023.13;10470596;28;20516;-90
2023/03/11 23:10:34;;;;;;;0.10;0.10;;;;;;;-1.49;88.65;101022.38;10467760;28;20044;-89
2023/03/11 23:22:05;;;;;;;0.45;0.45;;;;;;;-1.59;88.71;101020.84;10467469;28;20325;-89
2023/03/11 23:27:07;;;;;;;0.10;0.10;;;;;;;-1.66;89.00;101022.09;10499837;28;20547;-89
2023/03/11 23:32:10;;;;;;;0.10;0.10;;;;;;;-1.69;88.93;101032.13;10498552;28;20055;-90
2023/03/11 23:37:11;;;;;;;0.10;0.10;;;;;;;-1.77;89.14;101033.28;10484665;28;20534;-89
2023/03/11 23:42:16;;;;;;;0.65;0.65;;;;;;;-1.78;89.02;101031.50;10446296;28;20435;-89
2023/03/11 23:47:27;;;;;;;0.32;0.32;;;;;;;-1.83;89.20;101020.00;10467757;28;20044;-89
2023/03/11 23:52:29;;;;;;;0.47;0.40;;;;;;;-1.84;89.24;101021.69;10479988;28;20052;-89
2023/03/11 23:57:36;;;;;;;0.10;0.10;;;;;;;-1.86;89.59;101010.44;10493909;28;20128;-89
